Latest Weather Observations for Trangie

IDN60801

Issued at 9:32 am EDT Saturday 13 February 2016 (issued every 30 minutes, with the page automatically refreshed every 10 minutes)

About weather observations | Map of weather stations | Latest weather observations for NSW | Other Formats
Station Details ID: 051049 Name: TRANGIE RESEARCH STATION AWS Lat: -31.99 Lon: 147.95 Height: 215.0 m
Data from the previous 72 hours. | See also: Recent months at Trangie
Date/Time
EDT
Temp
°C
App
Temp
°C
Dew
Point
Rel
Hum
%
Delta-T
°C
Wind Press
QNH
hPa
Press
MSL
hPa
Rain
since 9 am
mm
Dir
 
Spd
km/h
Gust
km/h
Spd
kts
Gust
kts
13/09:00am 25.8 24.5 14.9 51 6.6 NNE 15 20 8 11 1014.4 1013.2 -
13/08:30am 24.5 24.8 16.0 59 5.2 NE 9 17 5 9 1014.3 1013.1 -
13/08:00am 23.0 23.6 16.8 68 3.8 E 9 15 5 8 1014.1 1012.9 -
13/07:30am 20.6 21.7 17.0 80 2.2 E 7 11 4 6 1013.8 1012.6 -
13/07:00am 19.6 20.0 16.4 82 1.9 E 9 13 5 7 1013.5 1012.3 -
13/06:30am 19.7 20.1 16.2 80 2.1 E 9 13 5 7 1013.0 1011.9 -
13/06:00am 20.3 21.0 16.1 77 2.5 E 7 11 4 6 1012.7 1011.5 -
13/05:30am 20.7 21.0 15.9 74 2.9 E 9 13 5 7 1012.5 1011.3 -
13/05:00am 21.2 21.1 16.0 72 3.2 E 11 17 6 9 1012.4 1011.2 -
13/04:30am 21.5 21.3 15.8 70 3.4 E 11 17 6 9 1012.2 1011.0 -
13/04:00am 21.0 21.0 15.1 69 3.5 E 9 15 5 8 1012.2 1011.0 -
13/03:30am 21.5 21.5 15.1 67 3.8 E 9 13 5 7 1012.3 1011.1 -
13/03:00am 20.4 20.4 14.1 67 3.7 ESE 7 13 4 7 1012.4 1011.2 0.0
13/02:30am 20.9 20.9 14.1 65 4.0 ESE 7 9 4 5 1012.4 1011.2 -
13/02:00am 20.8 21.0 13.0 61 4.5 ESE 4 7 2 4 1012.3 1011.1 -
13/01:30am 23.3 22.6 13.2 53 5.9 ENE 9 13 5 7 1012.4 1011.2 -
13/01:00am 23.9 23.0 12.5 49 6.6 ENE 9 13 5 7 1012.4 1011.2 -
13/12:30am 24.6 23.6 12.2 46 7.2 ENE 9 15 5 8 1012.4 1011.2 -
13/12:00am 24.9 23.5 12.2 45 7.3 ENE 11 15 6 8 1012.4 1011.2 -
 
Date/Time
EDT
Temp
°C
App
Temp
°C
Dew
Point
Rel
Hum
%
Delta-T
°C
Wind Press
QNH
hPa
Press
MSL
hPa
Rain
since 9 am
mm
Dir
 
Spd
km/h
Gust
km/h
Spd
kts
Gust
kts
12/11:30pm 23.5 22.8 11.9 48 6.6 ENE 7 9 4 5 1012.3 1011.1 -
12/11:00pm 24.1 23.6 12.1 47 6.9 ENE 6 9 3 5 1012.5 1011.3 -
12/10:30pm 25.4 25.0 12.3 44 7.6 NE 6 9 3 5 1012.5 1011.3 -
12/10:00pm 26.0 25.7 12.8 44 7.7 ENE 6 9 3 5 1012.6 1011.4 -
12/09:30pm 26.1 25.7 12.5 42 7.9 E 6 7 3 4 1012.5 1011.3 -
12/09:00pm 27.4 27.5 12.6 40 8.7 ENE 4 7 2 4 1012.3 1011.1 0.0
12/08:30pm 28.7 28.2 12.2 36 9.7 E 6 7 3 4 1012.0 1010.8 -
12/08:00pm 30.7 30.0 12.1 32 11.0 E 7 11 4 6 1011.8 1010.6 -
12/07:30pm 32.5 30.9 11.6 28 12.4 E 11 17 6 9 1011.5 1010.3 -
12/07:00pm 33.9 33.2 9.9 23 13.9 NNE 4 9 2 5 1011.2 1010.0 -
12/06:30pm 33.8 33.3 12.2 27 13.0 NNE 6 9 3 5 1011.2 1010.0 -
12/06:00pm 33.7 32.1 10.3 24 13.6 NNE 9 13 5 7 1011.1 1009.9 -
12/05:30pm 35.1 33.3 9.5 21 14.8 NE 9 17 5 9 1011.0 1009.8 -
12/05:00pm 33.7 32.1 10.3 24 13.6 ENE 9 13 5 7 1011.2 1010.0 -
12/04:30pm 34.9 33.8 10.0 22 14.5 NNW 6 11 3 6 1011.3 1010.1 -
12/04:00pm 33.9 34.1 10.5 24 13.7 CALM 0 6 0 3 1011.6 1010.4 -
12/03:30pm 35.5 33.6 11.8 24 14.2 W 13 20 7 11 1012.0 1010.8 -
12/03:00pm 35.4 34.0 13.5 26 13.5 NW 13 24 7 13 1012.5 1011.3 0.2
12/02:30pm 34.9 34.2 13.1 27 13.3 NNW 9 20 5 11 1012.8 1011.7 -
12/02:00pm 34.2 34.0 13.1 28 12.9 NE 6 15 3 8 1013.3 1012.1 -
12/01:30pm - - - - - NNW 4 9 2 5 - - -
12/01:00pm 33.4 33.0 14.0 31 11.9 WSW 9 17 5 9 1014.0 1012.8 0.2
12/12:30pm 32.4 31.1 13.6 32 11.5 NNW 13 20 7 11 1014.5 1013.3 0.2
12/12:00pm 32.1 31.5 15.6 37 10.3 NNW 13 19 7 10 1014.9 1013.7 0.2
12/11:30am 31.1 30.3 15.1 38 9.9 NNE 13 20 7 11 1015.1 1013.9 0.2
12/11:00am 30.1 29.4 15.4 41 9.1 NNE 13 20 7 11 1015.1 1013.9 0.2
12/10:30am 29.3 28.6 16.5 46 8.1 NNE 15 24 8 13 1015.2 1014.0 0.2
12/10:00am 27.8 27.4 16.1 49 7.3 NE 13 24 7 13 1015.3 1014.1 0.2
12/09:30am 26.6 26.3 16.5 54 6.3 ENE 13 24 7 13 1015.3 1014.1 0.2
12/09:00am 25.3 24.6 16.4 57 5.5 E 15 24 8 13 1015.3 1014.1 0.6
12/08:30am 23.9 23.5 17.2 66 4.2 E 15 28 8 15 1014.9 1013.7 0.6
12/08:00am 22.1 21.5 16.6 71 3.4 E 15 28 8 15 1014.4 1013.2 0.6
12/07:30am 20.1 20.2 15.5 75 2.8 ESE 9 13 5 7 1014.3 1013.1 0.6
12/07:00am 18.4 17.9 13.9 75 2.6 E 9 13 5 7 1013.8 1012.6 0.6
12/06:30am 18.2 17.6 13.5 74 2.7 E 9 11 5 6 1013.6 1012.4 0.6
12/06:00am 18.4 18.2 13.5 73 2.8 E 7 9 4 5 1013.3 1012.1 0.6
12/05:30am 18.8 18.5 13.2 70 3.2 ESE 7 13 4 7 1013.0 1011.9 0.6
12/05:00am 19.0 18.7 13.2 69 3.3 ESE 7 13 4 7 1012.5 1011.3 0.6
12/04:30am 18.9 18.7 12.9 68 3.4 ESE 6 7 3 4 1012.2 1011.0 0.6
12/04:00am 20.8 20.6 13.0 61 4.5 ENE 6 7 3 4 1012.4 1011.2 0.6
12/03:30am 21.5 21.1 12.9 58 4.9 NE 7 9 4 5 1012.5 1011.3 0.6
12/03:00am 22.4 21.7 13.2 56 5.3 ENE 9 13 5 7 1012.7 1011.5 0.6
12/02:30am 21.9 21.8 14.0 61 4.6 ENE 7 13 4 7 1012.9 1011.8 0.6
12/02:00am 22.3 22.4 14.4 61 4.7 NE 7 13 4 7 1013.5 1012.3 0.6
12/01:30am 23.6 22.6 14.6 57 5.4 ENE 13 19 7 10 1013.7 1012.5 0.6
12/01:00am 25.0 23.5 14.2 51 6.5 NE 15 24 8 13 1014.1 1012.9 0.6
12/12:30am 25.6 23.6 13.8 48 7.0 NE 17 24 9 13 1014.4 1013.2 0.6
12/12:00am 25.1 22.9 14.3 51 6.5 ENE 19 26 10 14 1014.2 1013.0 0.6
 
Date/Time
EDT
Temp
°C
App
Temp
°C
Dew
Point
Rel
Hum
%
Delta-T
°C
Wind Press
QNH
hPa
Press
MSL
hPa
Rain
since 9 am
mm
Dir
 
Spd
km/h
Gust
km/h
Spd
kts
Gust
kts
11/11:30pm 24.8 22.9 14.3 52 6.3 NE 17 26 9 14 1014.7 1013.5 0.6
11/11:00pm 25.9 23.2 13.4 46 7.4 E 20 35 11 19 1014.6 1013.4 0.6
11/10:30pm 26.8 24.7 13.5 44 7.9 ESE 17 33 9 18 1014.5 1013.3 0.6
11/10:00pm 24.6 23.9 14.4 53 6.1 NW 11 15 6 8 1012.4 1011.2 0.6
11/09:30pm 25.9 24.1 12.0 42 8.0 NNW 13 20 7 11 1012.1 1010.9 0.6
11/09:00pm 26.6 22.4 11.1 38 8.9 NE 24 43 13 23 1011.6 1010.4 0.6
11/08:41pm 27.2 23.6 12.0 38 8.8 N 22 48 12 26 1012.6 1011.4 0.6
11/08:30pm 25.6 21.6 14.1 49 6.9 SSW 28 41 15 22 1013.4 1012.2 0.2
11/08:19pm 27.4 22.8 12.2 39 8.9 SSW 28 46 15 25 1012.5 1011.3 0.0
11/08:00pm 23.6 21.1 15.1 59 5.1 SW 22 30 12 16 1012.8 1011.7 0.0
11/07:30pm 23.2 18.8 14.2 57 5.3 SSW 30 46 16 25 1011.7 1010.5 0.0
11/07:00pm 26.2 20.1 11.9 41 8.3 SSW 35 48 19 26 1011.7 1010.5 0.0
11/06:54pm 26.8 19.8 11.3 38 8.9 SW 39 57 21 31 1011.6 1010.4 0.0
11/06:30pm 26.0 20.6 13.8 47 7.3 SSW 35 50 19 27 1011.3 1010.1 0.0
11/06:00pm 25.5 18.4 13.4 47 7.2 SW 43 54 23 29 1010.8 1009.6 0.0
11/05:58pm 25.9 19.0 12.7 44 7.7 SW 41 54 22 29 1010.9 1009.7 0.0
11/05:33pm 31.0 25.5 9.3 26 12.3 SSW 28 46 15 25 1010.2 1009.0 0.0
11/05:30pm 31.5 27.9 9.7 26 12.5 SSW 19 33 10 18 1010.2 1009.0 0.0
11/05:00pm 36.1 34.1 8.8 19 15.7 NNW 9 15 5 8 1009.3 1008.1 0.0
11/04:30pm 36.2 34.8 9.7 20 15.5 NNE 7 15 4 8 1009.4 1008.2 0.0
11/04:00pm 36.4 34.3 9.8 20 15.6 NE 11 17 6 9 1009.9 1008.7 0.0
11/03:30pm 35.8 33.8 10.1 21 15.1 NNE 11 19 6 10 1010.7 1009.5 0.0
11/03:00pm 36.0 35.0 10.2 21 15.2 N 6 15 3 8 1011.3 1010.1 0.0
11/02:30pm 35.2 33.4 9.6 21 14.9 NW 9 15 5 8 1011.7 1010.5 0.0
11/02:00pm 35.7 33.3 10.0 21 15.0 NNW 13 19 7 10 1012.1 1010.9 0.0
11/01:30pm 34.7 33.0 9.9 22 14.4 NE 9 13 5 7 1012.5 1011.3 0.0
11/01:00pm 34.0 32.3 9.9 23 14.0 NNW 9 17 5 9 1012.8 1011.7 0.0
11/12:30pm 34.0 31.9 9.9 23 14.0 NW 11 20 6 11 1013.3 1012.1 0.0
11/12:00pm 33.6 31.2 10.2 24 13.6 NW 13 20 7 11 1013.6 1012.4 0.0
11/11:30am 32.8 31.1 11.3 27 12.7 NNE 11 17 6 9 1013.9 1012.7 0.0
11/11:00am 31.7 30.6 12.0 30 11.7 NNE 9 15 5 8 1014.1 1012.9 0.0
11/10:30am 29.8 27.7 11.3 32 10.8 NNE 13 20 7 11 1014.1 1012.9 0.0
11/10:00am 29.4 28.3 13.2 37 9.7 NNE 11 15 6 8 1014.2 1013.0 0.0
11/09:30am 27.1 25.3 12.0 39 8.8 NE 13 17 7 9 1014.3 1013.1 0.0
11/09:00am 26.9 24.6 11.8 39 8.7 NNE 15 20 8 11 1014.2 1013.0 0.0
11/08:30am 25.4 24.7 13.3 47 7.1 NE 9 15 5 8 1014.0 1012.8 0.0
11/08:00am 22.5 22.2 14.4 60 4.8 ENE 9 13 5 7 1013.9 1012.7 0.0
11/07:30am 20.2 19.8 14.1 68 3.6 ENE 9 11 5 6 1013.5 1012.3 0.0
11/07:00am 19.4 18.7 14.2 72 3.0 E 11 15 6 8 1013.0 1011.9 0.0
11/06:30am 17.6 17.4 13.7 78 2.2 ESE 7 9 4 5 1012.7 1011.5 0.0
11/06:00am 17.9 17.6 13.4 75 2.6 ESE 7 9 4 5 1012.3 1011.1 0.0
11/05:30am 19.3 18.8 13.9 71 3.1 ENE 9 13 5 7 1011.8 1010.6 0.0
11/05:00am 18.4 18.2 13.5 73 2.8 ESE 7 9 4 5 1011.6 1010.4 0.0
11/04:30am 18.9 18.7 13.5 71 3.1 E 7 9 4 5 1011.4 1010.2 0.0
11/04:00am 19.1 18.9 13.1 68 3.4 E 6 7 3 4 1011.3 1010.1 0.0
11/03:30am 20.4 20.3 13.4 64 4.0 E 6 7 3 4 1011.2 1010.0 0.0
11/03:00am 20.9 20.3 13.6 63 4.2 ENE 9 11 5 6 1011.2 1010.0 0.0
11/02:30am 21.1 20.9 13.0 60 4.7 NE 6 7 3 4 1011.4 1010.2 0.0
11/02:00am 22.0 21.5 12.8 56 5.3 NE 7 9 4 5 1011.4 1010.2 0.0
11/01:30am 22.3 22.0 12.8 55 5.5 NNE 6 9 3 5 1011.6 1010.4 0.0
11/01:00am 22.9 22.6 12.8 53 5.8 NNE 6 7 3 4 1011.6 1010.4 0.0
11/12:30am 23.5 23.2 13.4 53 5.9 NNE 7 9 4 5 1011.8 1010.6 0.0
11/12:00am 22.8 22.4 12.4 52 6.0 N 6 9 3 5 1011.9 1010.7 0.0
 
Date/Time
EDT
Temp
°C
App
Temp
°C
Dew
Point
Rel
Hum
%
Delta-T
°C
Wind Press
QNH
hPa
Press
MSL
hPa
Rain
since 9 am
mm
Dir
 
Spd
km/h
Gust
km/h
Spd
kts
Gust
kts
10/11:30pm 24.6 24.2 12.9 48 6.8 NNE 7 9 4 5 1012.0 1010.8 0.0
10/11:00pm 24.9 24.4 12.5 46 7.2 NNE 7 9 4 5 1012.2 1011.0 0.0
10/10:30pm 25.6 25.0 12.4 43 7.7 NE 7 11 4 6 1012.3 1011.1 0.0
10/10:00pm 25.9 25.3 12.4 43 7.9 NE 7 11 4 6 1012.4 1011.2 0.0
10/09:30pm 26.6 26.0 12.3 41 8.3 NE 7 9 4 5 1012.2 1011.0 0.0
10/09:00pm 26.8 26.3 12.1 40 8.6 NE 6 7 3 4 1012.3 1011.1 0.0
10/08:30pm 27.9 27.4 11.9 37 9.3 NE 6 9 3 5 1012.2 1011.0 0.0
10/08:00pm 29.9 29.1 10.9 31 11.0 NE 6 7 3 4 1011.8 1010.6 0.0
10/07:30pm 32.1 32.0 10.8 27 12.4 SE 2 6 1 3 1011.7 1010.5 0.0
10/07:00pm 32.8 30.8 10.2 25 13.1 E 11 17 6 9 1011.4 1010.2 0.0
10/06:30pm 33.8 32.1 9.8 23 13.9 ESE 9 17 5 9 1011.2 1010.0 0.0
10/06:00pm 34.1 32.8 11.3 25 13.5 E 9 15 5 8 1011.2 1010.0 0.0
10/05:30pm 33.4 31.6 10.7 25 13.3 SE 11 17 6 9 1011.3 1010.1 0.0
10/05:00pm 33.4 33.2 11.9 27 12.8 ESE 4 11 2 6 1011.3 1010.1 0.0
10/04:30pm 34.8 34.1 11.9 25 13.7 SSE 7 11 4 6 1011.4 1010.2 0.0
10/04:00pm 34.5 32.9 12.8 27 13.2 WSW 13 20 7 11 1011.7 1010.5 0.0
10/03:30pm 34.6 33.2 13.4 28 13.0 S 13 20 7 11 1012.1 1010.9 0.0
10/03:00pm 33.3 32.3 12.3 28 12.6 ESE 9 15 5 8 1012.7 1011.5 0.0
10/02:30pm 33.7 33.7 14.2 30 12.0 NW 7 13 4 7 1013.3 1012.1 0.0
10/02:00pm 32.9 32.5 14.0 32 11.6 NNW 9 19 5 10 1013.7 1012.5 0.0
10/01:30pm 33.0 33.3 14.6 33 11.4 WSW 6 13 3 7 1014.2 1013.0 0.0
10/01:00pm 31.1 30.5 13.4 34 10.7 NE 9 13 5 7 1014.7 1013.5 0.0
10/12:30pm 31.1 30.4 14.3 36 10.3 N 11 19 6 10 1015.0 1013.8 0.0
10/12:00pm 30.2 30.2 14.3 38 9.7 NNW 7 13 4 7 1015.5 1014.3 0.0
10/11:30am 29.8 29.8 15.1 40 9.1 NNE 9 15 5 8 1016.0 1014.8 0.0
10/11:00am 28.4 28.2 14.6 43 8.4 N 9 13 5 7 1016.3 1015.1 0.0
10/10:30am 27.1 25.8 14.8 47 7.5 N 15 24 8 13 1016.3 1015.1 0.0
10/10:00am 26.0 25.3 15.4 52 6.5 NNE 13 19 7 10 1016.6 1015.4 0.0

Other Formats:

Comma delimited format used in spreadsheet applications
http://www.bom.gov.au/fwo/IDN60801/IDN60801.95710.axf

JavaScript Object Notation format (JSON) in row-major order
http://www.bom.gov.au/fwo/IDN60801/IDN60801.95710.json